createdAt,value
2022-11-29T00:02:40.624Z,7.1
2022-11-29T00:12:42.661Z,7.1
2022-11-29T00:22:44.398Z,7.1
2022-11-29T00:32:46.643Z,7
2022-11-29T00:42:49.133Z,7
2022-11-29T00:52:51.331Z,7.1
2022-11-29T01:02:53.901Z,7
2022-11-29T01:22:57.671Z,7
2022-11-29T01:32:59.628Z,7
2022-11-29T01:43:01.717Z,7
2022-11-29T01:53:03.685Z,7
2022-11-29T02:03:06.084Z,7.1
2022-11-29T02:13:08.093Z,7.1
2022-11-29T02:23:10.232Z,7.1
2022-11-29T02:33:12.104Z,7.2
2022-11-29T02:43:14.134Z,7.2
2022-11-29T02:53:16.111Z,7.2
2022-11-29T03:03:18.640Z,7.1
2022-11-29T03:13:20.435Z,7.1
2022-11-29T03:23:22.661Z,7.1
2022-11-29T03:33:24.521Z,7.1
2022-11-29T03:43:26.975Z,7
2022-11-29T03:53:29.130Z,7
2022-11-29T04:03:31.160Z,7
2022-11-29T04:13:33.709Z,7
2022-11-29T04:23:36.131Z,7
2022-11-29T04:33:37.968Z,6.9
2022-11-29T04:43:40.178Z,6.8
2022-11-29T04:53:42.235Z,6.7
2022-11-29T05:03:46.769Z,6.6
2022-11-29T05:13:46.150Z,6.6
2022-11-29T05:23:48.015Z,6.5
2022-11-29T05:33:50.285Z,6.6
2022-11-29T05:53:54.766Z,6.6
2022-11-29T06:03:57.258Z,6.6
2022-11-29T06:13:59.763Z,6.6
2022-11-29T06:24:01.430Z,6.6
2022-11-29T06:34:03.625Z,6.6
2022-11-29T06:44:05.437Z,6.6
2022-11-29T06:54:07.765Z,6.6
2022-11-29T07:04:09.647Z,6.6
2022-11-29T07:34:16.079Z,6.6
2022-11-29T07:44:18.553Z,6.5
2022-11-29T07:54:21.107Z,6.6
2022-11-29T08:04:22.843Z,6.7
2022-11-29T08:14:24.950Z,6.8
2022-11-29T08:24:27.217Z,6.9
2022-11-29T08:34:29.076Z,6.8
2022-11-29T08:44:31.076Z,7
2022-11-29T08:54:32.965Z,7.1
2022-11-29T09:04:34.650Z,7.3
2022-11-29T09:14:36.533Z,7.3
2022-11-29T09:24:38.684Z,7.4
2022-11-29T09:34:41.201Z,7.4
2022-11-29T09:44:43.482Z,7.5
2022-11-29T09:54:46.052Z,7.7
2022-11-29T10:04:47.974Z,7.8
2022-11-29T10:24:52.583Z,7.7
2022-11-29T10:34:54.443Z,8
2022-11-29T10:44:56.810Z,8.1
2022-11-29T10:54:59.417Z,8
2022-11-29T11:05:02.053Z,7.9
2022-11-29T11:15:03.942Z,7.7
2022-11-29T11:25:05.824Z,7.6
2022-11-29T11:35:08.331Z,8
2022-11-29T11:45:10.925Z,7.9
2022-11-29T11:55:12.824Z,7.8
2022-11-29T12:05:14.686Z,7.7
2022-11-29T12:15:16.740Z,7.7
2022-11-29T12:25:18.866Z,7.6
2022-11-29T12:35:21.278Z,7.6
2022-11-29T12:45:23.371Z,7.6
2022-11-29T12:55:25.402Z,7.8
2022-11-29T13:05:27.448Z,7.7
2022-11-29T13:15:29.136Z,7.9
2022-11-29T13:25:31.356Z,7.8
2022-11-29T13:35:33.987Z,7.8
2022-11-29T13:45:35.805Z,7.8
2022-11-29T13:55:37.722Z,7.7
2022-11-29T14:05:40.209Z,7.7
2022-11-29T14:15:42.136Z,7.8
2022-11-29T14:35:45.803Z,7.9
2022-11-29T14:45:47.559Z,7.7
2022-11-29T14:55:50.084Z,7.7
2022-11-29T15:05:51.958Z,7.6
2022-11-29T15:05:58.856Z,7.6
2022-11-29T15:16:05.893Z,7.6
2022-11-29T15:26:03.458Z,7.6
2022-11-29T15:36:05.498Z,7.5
2022-11-29T15:46:07.600Z,7.5
2022-11-29T16:06:11.603Z,7.4
2022-11-29T16:16:13.729Z,7.4
2022-11-29T16:26:16.263Z,7.4
2022-11-29T16:36:18.841Z,7.3
2022-11-29T16:46:20.950Z,7.3
2022-11-29T16:56:23.323Z,7.2
2022-11-29T17:06:25.513Z,7.2
2022-11-29T17:16:27.909Z,7.1
2022-11-29T17:26:29.466Z,7.1
2022-11-29T17:36:31.258Z,7.1
2022-11-29T17:46:33.650Z,7
2022-11-29T17:56:35.486Z,7
2022-11-29T18:06:37.219Z,7
2022-11-29T18:16:39.545Z,7.1
2022-11-29T18:26:41.246Z,7
2022-11-29T18:36:43.501Z,7.1
2022-11-29T18:56:48.233Z,7
2022-11-29T19:06:50.374Z,7
2022-11-29T19:16:52.397Z,6.9
2022-11-29T19:26:54.316Z,6.8
2022-11-29T19:36:55.998Z,6.8
2022-11-29T19:46:57.680Z,6.7
2022-11-29T19:56:59.844Z,6.7
2022-11-29T20:07:02.451Z,6.6
2022-11-29T20:17:05.076Z,6.6
2022-11-29T20:27:07.643Z,6.6
2022-11-29T20:37:10.248Z,6.6
2022-11-29T20:47:12.768Z,6.6
2022-11-29T20:57:14.980Z,6.6
2022-11-29T21:07:17.616Z,6.7
2022-11-29T21:17:19.908Z,6.6
2022-11-29T21:27:22.387Z,6.6
2022-11-29T21:47:26.531Z,6.6
2022-11-29T21:57:28.781Z,6.6
2022-11-29T22:07:31.355Z,6.6
2022-11-29T22:17:33.097Z,6.6
2022-11-29T22:27:35.150Z,6.6
2022-11-29T22:37:37.151Z,6.6
2022-11-29T23:17:46.175Z,6.7
2022-11-29T23:27:48.676Z,6.7
